sensor_id;sensor_type;location;lat;lon;timestamp;P1;durP1;ratioP1;P2;durP2;ratioP2
21743;SDS011;11034;48.556;9.342;2023-12-20T00:01:48;0.75;;;0.70;;
21743;SDS011;11034;48.556;9.342;2023-12-20T00:04:18;0.77;;;0.77;;
21743;SDS011;11034;48.556;9.342;2023-12-20T00:06:47;0.77;;;0.77;;
21743;SDS011;11034;48.556;9.342;2023-12-20T00:09:15;1.00;;;0.75;;
21743;SDS011;11034;48.556;9.342;2023-12-20T00:11:44;0.85;;;0.70;;
21743;SDS011;11034;48.556;9.342;2023-12-20T00:14:12;0.82;;;0.70;;
21743;SDS011;11034;48.556;9.342;2023-12-20T00:16:40;0.98;;;0.73;;
21743;SDS011;11034;48.556;9.342;2023-12-20T00:19:09;1.25;;;0.70;;
21743;SDS011;11034;48.556;9.342;2023-12-20T00:21:39;1.00;;;0.80;;
21743;SDS011;11034;48.556;9.342;2023-12-20T00:24:07;0.93;;;0.70;;
21743;SDS011;11034;48.556;9.342;2023-12-20T00:26:36;1.55;;;0.70;;
21743;SDS011;11034;48.556;9.342;2023-12-20T00:29:04;0.65;;;0.60;;
21743;SDS011;11034;48.556;9.342;2023-12-20T00:31:32;0.77;;;0.68;;
21743;SDS011;11034;48.556;9.342;2023-12-20T00:34:01;0.70;;;0.60;;
21743;SDS011;11034;48.556;9.342;2023-12-20T00:36:29;0.75;;;0.60;;
21743;SDS011;11034;48.556;9.342;2023-12-20T00:38:59;0.60;;;0.60;;
21743;SDS011;11034;48.556;9.342;2023-12-20T00:41:27;0.70;;;0.55;;
21743;SDS011;11034;48.556;9.342;2023-12-20T00:43:56;0.70;;;0.50;;
21743;SDS011;11034;48.556;9.342;2023-12-20T00:46:24;1.77;;;0.50;;
21743;SDS011;11034;48.556;9.342;2023-12-20T00:48:52;0.50;;;0.50;;
21743;SDS011;11034;48.556;9.342;2023-12-20T00:51:22;1.02;;;0.60;;
21743;SDS011;11034;48.556;9.342;2023-12-20T00:53:50;0.50;;;0.50;;
21743;SDS011;11034;48.556;9.342;2023-12-20T00:56:22;0.95;;;0.57;;
21743;SDS011;11034;48.556;9.342;2023-12-20T00:58:51;0.70;;;0.70;;
21743;SDS011;11034;48.556;9.342;2023-12-20T01:01:19;1.05;;;0.68;;
21743;SDS011;11034;48.556;9.342;2023-12-20T01:03:47;0.90;;;0.60;;
21743;SDS011;11034;48.556;9.342;2023-12-20T01:06:17;1.08;;;0.57;;
21743;SDS011;11034;48.556;9.342;2023-12-20T01:08:46;0.85;;;0.43;;
21743;SDS011;11034;48.556;9.342;2023-12-20T01:11:14;1.45;;;0.70;;
21743;SDS011;11034;48.556;9.342;2023-12-20T01:13:44;1.08;;;0.60;;
21743;SDS011;11034;48.556;9.342;2023-12-20T01:16:11;0.90;;;0.68;;
21743;SDS011;11034;48.556;9.342;2023-12-20T01:18:40;1.85;;;0.70;;
21743;SDS011;11034;48.556;9.342;2023-12-20T01:21:08;1.17;;;0.80;;
21743;SDS011;11034;48.556;9.342;2023-12-20T01:23:37;1.40;;;0.70;;
21743;SDS011;11034;48.556;9.342;2023-12-20T01:26:05;0.77;;;0.70;;
21743;SDS011;11034;48.556;9.342;2023-12-20T01:28:33;0.77;;;0.70;;
21743;SDS011;11034;48.556;9.342;2023-12-20T01:31:03;0.93;;;0.70;;
21743;SDS011;11034;48.556;9.342;2023-12-20T01:33:32;1.60;;;0.75;;
21743;SDS011;11034;48.556;9.342;2023-12-20T01:36:00;1.35;;;0.80;;
21743;SDS011;11034;48.556;9.342;2023-12-20T01:38:28;3.15;;;0.90;;
21743;SDS011;11034;48.556;9.342;2023-12-20T01:40:57;1.42;;;0.95;;
21743;SDS011;11034;48.556;9.342;2023-12-20T01:43:25;0.93;;;0.80;;
21743;SDS011;11034;48.556;9.342;2023-12-20T01:45:58;1.00;;;0.90;;
21743;SDS011;11034;48.556;9.342;2023-12-20T01:48:28;0.82;;;0.80;;
21743;SDS011;11034;48.556;9.342;2023-12-20T01:50:58;2.05;;;0.90;;
21743;SDS011;11034;48.556;9.342;2023-12-20T01:53:27;0.93;;;0.70;;
21743;SDS011;11034;48.556;9.342;2023-12-20T01:55:56;1.95;;;1.00;;
21743;SDS011;11034;48.556;9.342;2023-12-20T01:58:26;1.25;;;0.95;;
21743;SDS011;11034;48.556;9.342;2023-12-20T02:00:54;1.83;;;0.98;;
21743;SDS011;11034;48.556;9.342;2023-12-20T02:03:23;1.30;;;0.95;;
21743;SDS011;11034;48.556;9.342;2023-12-20T02:05:53;3.92;;;1.10;;
21743;SDS011;11034;48.556;9.342;2023-12-20T02:08:21;1.20;;;0.90;;
21743;SDS011;11034;48.556;9.342;2023-12-20T02:10:50;1.52;;;0.95;;
21743;SDS011;11034;48.556;9.342;2023-12-20T02:13:18;2.58;;;1.38;;
21743;SDS011;11034;48.556;9.342;2023-12-20T02:15:47;2.63;;;1.10;;
21743;SDS011;11034;48.556;9.342;2023-12-20T02:18:15;1.70;;;1.17;;
21743;SDS011;11034;48.556;9.342;2023-12-20T02:20:43;1.50;;;1.17;;
21743;SDS011;11034;48.556;9.342;2023-12-20T02:23:13;3.25;;;1.20;;
21743;SDS011;11034;48.556;9.342;2023-12-20T02:25:41;1.50;;;1.23;;
21743;SDS011;11034;48.556;9.342;2023-12-20T02:28:10;2.03;;;1.15;;
21743;SDS011;11034;48.556;9.342;2023-12-20T02:30:38;2.17;;;1.20;;
21743;SDS011;11034;48.556;9.342;2023-12-20T02:33:07;2.00;;;1.33;;
21743;SDS011;11034;48.556;9.342;2023-12-20T02:35:37;2.33;;;1.13;;
21743;SDS011;11034;48.556;9.342;2023-12-20T02:38:05;1.90;;;1.23;;
21743;SDS011;11034;48.556;9.342;2023-12-20T02:40:35;1.58;;;1.30;;
21743;SDS011;11034;48.556;9.342;2023-12-20T02:43:03;2.17;;;1.13;;
21743;SDS011;11034;48.556;9.342;2023-12-20T02:45:32;1.85;;;1.17;;
21743;SDS011;11034;48.556;9.342;2023-12-20T02:48:00;2.35;;;1.38;;
21743;SDS011;11034;48.556;9.342;2023-12-20T02:50:28;2.95;;;1.35;;
21743;SDS011;11034;48.556;9.342;2023-12-20T02:52:57;1.80;;;1.17;;
21743;SDS011;11034;48.556;9.342;2023-12-20T02:55:25;2.90;;;1.17;;
21743;SDS011;11034;48.556;9.342;2023-12-20T02:57:55;2.40;;;1.20;;
21743;SDS011;11034;48.556;9.342;2023-12-20T03:00:23;1.35;;;1.02;;
21743;SDS011;11034;48.556;9.342;2023-12-20T03:02:52;1.60;;;1.20;;
21743;SDS011;11034;48.556;9.342;2023-12-20T03:05:20;1.42;;;1.05;;
21743;SDS011;11034;48.556;9.342;2023-12-20T03:07:56;1.45;;;1.10;;
21743;SDS011;11034;48.556;9.342;2023-12-20T03:10:24;1.40;;;1.08;;
21743;SDS011;11034;48.556;9.342;2023-12-20T03:12:54;1.23;;;1.13;;
21743;SDS011;11034;48.556;9.342;2023-12-20T03:15:23;2.00;;;1.23;;
21743;SDS011;11034;48.556;9.342;2023-12-20T03:17:51;2.22;;;1.20;;
21743;SDS011;11034;48.556;9.342;2023-12-20T03:20:19;1.60;;;1.15;;
21743;SDS011;11034;48.556;9.342;2023-12-20T03:22:48;1.40;;;1.05;;
21743;SDS011;11034;48.556;9.342;2023-12-20T03:25:16;1.95;;;1.40;;
21743;SDS011;11034;48.556;9.342;2023-12-20T03:27:45;1.60;;;1.10;;
21743;SDS011;11034;48.556;9.342;2023-12-20T03:30:15;1.45;;;1.25;;
21743;SDS011;11034;48.556;9.342;2023-12-20T03:32:44;1.50;;;1.35;;
21743;SDS011;11034;48.556;9.342;2023-12-20T03:35:12;2.08;;;1.30;;
21743;SDS011;11034;48.556;9.342;2023-12-20T03:37:41;1.80;;;1.30;;
21743;SDS011;11034;48.556;9.342;2023-12-20T03:40:10;1.60;;;1.23;;
21743;SDS011;11034;48.556;9.342;2023-12-20T03:42:38;1.75;;;1.10;;
21743;SDS011;11034;48.556;9.342;2023-12-20T03:45:07;1.55;;;1.17;;
21743;SDS011;11034;48.556;9.342;2023-12-20T03:47:37;1.27;;;1.10;;
21743;SDS011;11034;48.556;9.342;2023-12-20T03:50:06;2.10;;;1.20;;
21743;SDS011;11034;48.556;9.342;2023-12-20T03:52:35;1.00;;;0.77;;
21743;SDS011;11034;48.556;9.342;2023-12-20T03:55:03;1.17;;;0.80;;
21743;SDS011;11034;48.556;9.342;2023-12-20T03:57:32;1.80;;;0.80;;
21743;SDS011;11034;48.556;9.342;2023-12-20T04:00:00;1.17;;;0.90;;
21743;SDS011;11034;48.556;9.342;2023-12-20T04:02:28;0.70;;;0.70;;
21743;SDS011;11034;48.556;9.342;2023-12-20T04:04:58;0.80;;;0.70;;
21743;SDS011;11034;48.556;9.342;2023-12-20T04:07:29;1.15;;;0.60;;
21743;SDS011;11034;48.556;9.342;2023-12-20T04:09:57;0.70;;;0.60;;
21743;SDS011;11034;48.556;9.342;2023-12-20T04:12:26;1.95;;;0.70;;
21743;SDS011;11034;48.556;9.342;2023-12-20T04:14:54;2.88;;;0.77;;
21743;SDS011;11034;48.556;9.342;2023-12-20T04:17:22;0.50;;;0.50;;
21743;SDS011;11034;48.556;9.342;2023-12-20T04:19:51;1.27;;;0.63;;
21743;SDS011;11034;48.556;9.342;2023-12-20T04:22:21;0.50;;;0.50;;
21743;SDS011;11034;48.556;9.342;2023-12-20T04:24:50;0.50;;;0.50;;
21743;SDS011;11034;48.556;9.342;2023-12-20T04:27:18;0.95;;;0.55;;
21743;SDS011;11034;48.556;9.342;2023-12-20T04:29:47;1.23;;;0.70;;
21743;SDS011;11034;48.556;9.342;2023-12-20T04:32:15;0.88;;;0.70;;
21743;SDS011;11034;48.556;9.342;2023-12-20T04:34:44;0.60;;;0.60;;
21743;SDS011;11034;48.556;9.342;2023-12-20T04:37:12;0.70;;;0.68;;
21743;SDS011;11034;48.556;9.342;2023-12-20T04:39:42;1.83;;;0.80;;
21743;SDS011;11034;48.556;9.342;2023-12-20T04:42:10;0.93;;;0.70;;
21743;SDS011;11034;48.556;9.342;2023-12-20T04:44:39;1.40;;;0.60;;
21743;SDS011;11034;48.556;9.342;2023-12-20T04:47:07;0.40;;;0.40;;
21743;SDS011;11034;48.556;9.342;2023-12-20T04:49:36;1.10;;;0.40;;
21743;SDS011;11034;48.556;9.342;2023-12-20T04:52:04;0.70;;;0.60;;
21743;SDS011;11034;48.556;9.342;2023-12-20T04:54:33;1.17;;;0.90;;
21743;SDS011;11034;48.556;9.342;2023-12-20T04:57:03;0.63;;;0.50;;
21743;SDS011;11034;48.556;9.342;2023-12-20T04:59:31;1.65;;;0.50;;
21743;SDS011;11034;48.556;9.342;2023-12-20T05:02:00;1.02;;;0.60;;
21743;SDS011;11034;48.556;9.342;2023-12-20T05:04:28;3.33;;;0.70;;
21743;SDS011;11034;48.556;9.342;2023-12-20T05:06:56;0.35;;;0.35;;
21743;SDS011;11034;48.556;9.342;2023-12-20T05:09:25;0.40;;;0.40;;
21743;SDS011;11034;48.556;9.342;2023-12-20T05:11:53;0.40;;;0.40;;
21743;SDS011;11034;48.556;9.342;2023-12-20T05:14:23;0.90;;;0.50;;
21743;SDS011;11034;48.556;9.342;2023-12-20T05:16:52;0.40;;;0.40;;
21743;SDS011;11034;48.556;9.342;2023-12-20T05:19:23;1.33;;;0.75;;
21743;SDS011;11034;48.556;9.342;2023-12-20T05:21:52;1.10;;;0.47;;
21743;SDS011;11034;48.556;9.342;2023-12-20T05:24:24;0.40;;;0.40;;
21743;SDS011;11034;48.556;9.342;2023-12-20T05:26:52;0.60;;;0.50;;
21743;SDS011;11034;48.556;9.342;2023-12-20T05:29:21;0.80;;;0.40;;
21743;SDS011;11034;48.556;9.342;2023-12-20T05:31:51;0.47;;;0.47;;
21743;SDS011;11034;48.556;9.342;2023-12-20T05:34:19;0.40;;;0.40;;
21743;SDS011;11034;48.556;9.342;2023-12-20T05:36:48;0.60;;;0.60;;
21743;SDS011;11034;48.556;9.342;2023-12-20T05:39:16;0.40;;;0.40;;
21743;SDS011;11034;48.556;9.342;2023-12-20T05:41:44;0.55;;;0.55;;
21743;SDS011;11034;48.556;9.342;2023-12-20T05:44:13;0.40;;;0.40;;
21743;SDS011;11034;48.556;9.342;2023-12-20T05:46:42;1.40;;;0.63;;
21743;SDS011;11034;48.556;9.342;2023-12-20T05:49:11;0.50;;;0.50;;
21743;SDS011;11034;48.556;9.342;2023-12-20T05:51:40;0.50;;;0.50;;
21743;SDS011;11034;48.556;9.342;2023-12-20T05:54:09;0.65;;;0.40;;
21743;SDS011;11034;48.556;9.342;2023-12-20T05:56:37;1.50;;;0.60;;
21743;SDS011;11034;48.556;9.342;2023-12-20T05:59:06;0.50;;;0.50;;
21743;SDS011;11034;48.556;9.342;2023-12-20T06:01:34;0.60;;;0.55;;
21743;SDS011;11034;48.556;9.342;2023-12-20T06:04:03;0.65;;;0.60;;
21743;SDS011;11034;48.556;9.342;2023-12-20T06:06:33;0.60;;;0.60;;
21743;SDS011;11034;48.556;9.342;2023-12-20T06:09:02;0.47;;;0.47;;
21743;SDS011;11034;48.556;9.342;2023-12-20T06:11:30;0.75;;;0.60;;
21743;SDS011;11034;48.556;9.342;2023-12-20T06:13:58;2.25;;;0.40;;
21743;SDS011;11034;48.556;9.342;2023-12-20T06:16:27;0.60;;;0.50;;
21743;SDS011;11034;48.556;9.342;2023-12-20T06:18:55;0.55;;;0.50;;
21743;SDS011;11034;48.556;9.342;2023-12-20T06:21:24;0.75;;;0.43;;
21743;SDS011;11034;48.556;9.342;2023-12-20T06:23:53;0.82;;;0.50;;
21743;SDS011;11034;48.556;9.342;2023-12-20T06:26:22;0.70;;;0.60;;
21743;SDS011;11034;48.556;9.342;2023-12-20T06:28:50;1.63;;;0.52;;
21743;SDS011;11034;48.556;9.342;2023-12-20T06:31:19;0.47;;;0.47;;
21743;SDS011;11034;48.556;9.342;2023-12-20T06:33:47;1.15;;;0.65;;
21743;SDS011;11034;48.556;9.342;2023-12-20T06:36:23;0.68;;;0.65;;
21743;SDS011;11034;48.556;9.342;2023-12-20T06:38:53;1.00;;;0.70;;
21743;SDS011;11034;48.556;9.342;2023-12-20T06:41:21;0.80;;;0.80;;
21743;SDS011;11034;48.556;9.342;2023-12-20T06:43:51;0.88;;;0.88;;
21743;SDS011;11034;48.556;9.342;2023-12-20T06:46:19;0.82;;;0.82;;
21743;SDS011;11034;48.556;9.342;2023-12-20T06:48:48;1.40;;;1.10;;
21743;SDS011;11034;48.556;9.342;2023-12-20T06:51:16;0.80;;;0.80;;
21743;SDS011;11034;48.556;9.342;2023-12-20T06:53:46;3.00;;;1.30;;
21743;SDS011;11034;48.556;9.342;2023-12-20T06:56:16;2.03;;;1.27;;
21743;SDS011;11034;48.556;9.342;2023-12-20T06:58:45;0.60;;;0.60;;
21743;SDS011;11034;48.556;9.342;2023-12-20T07:01:14;0.55;;;0.55;;
21743;SDS011;11034;48.556;9.342;2023-12-20T07:03:43;0.93;;;0.65;;
21743;SDS011;11034;48.556;9.342;2023-12-20T07:06:11;0.40;;;0.40;;
21743;SDS011;11034;48.556;9.342;2023-12-20T07:08:42;1.13;;;0.70;;
21743;SDS011;11034;48.556;9.342;2023-12-20T07:11:11;0.60;;;0.50;;
21743;SDS011;11034;48.556;9.342;2023-12-20T07:13:41;1.08;;;0.60;;
21743;SDS011;11034;48.556;9.342;2023-12-20T07:16:09;0.30;;;0.30;;
21743;SDS011;11034;48.556;9.342;2023-12-20T07:18:38;0.95;;;0.50;;
21743;SDS011;11034;48.556;9.342;2023-12-20T07:21:06;0.52;;;0.50;;
21743;SDS011;11034;48.556;9.342;2023-12-20T07:23:35;0.55;;;0.40;;
21743;SDS011;11034;48.556;9.342;2023-12-20T07:26:03;1.27;;;0.40;;
21743;SDS011;11034;48.556;9.342;2023-12-20T07:28:31;0.88;;;0.40;;
21743;SDS011;11034;48.556;9.342;2023-12-20T07:31:01;0.50;;;0.50;;
21743;SDS011;11034;48.556;9.342;2023-12-20T07:33:30;0.60;;;0.43;;
21743;SDS011;11034;48.556;9.342;2023-12-20T07:36:05;0.40;;;0.40;;
21743;SDS011;11034;48.556;9.342;2023-12-20T07:38:34;1.10;;;0.50;;
21743;SDS011;11034;48.556;9.342;2023-12-20T07:41:02;0.40;;;0.40;;
21743;SDS011;11034;48.556;9.342;2023-12-20T07:43:31;2.25;;;0.52;;
21743;SDS011;11034;48.556;9.342;2023-12-20T07:46:05;0.52;;;0.40;;
21743;SDS011;11034;48.556;9.342;2023-12-20T07:48:34;0.65;;;0.60;;
21743;SDS011;11034;48.556;9.342;2023-12-20T07:51:02;1.67;;;0.50;;
21743;SDS011;11034;48.556;9.342;2023-12-20T07:53:32;0.95;;;0.50;;
21743;SDS011;11034;48.556;9.342;2023-12-20T07:56:01;0.50;;;0.47;;
21743;SDS011;11034;48.556;9.342;2023-12-20T07:58:29;0.90;;;0.60;;
21743;SDS011;11034;48.556;9.342;2023-12-20T08:01:17;0.63;;;0.60;;
21743;SDS011;11034;48.556;9.342;2023-12-20T08:03:48;0.80;;;0.60;;
21743;SDS011;11034;48.556;9.342;2023-12-20T08:06:17;1.23;;;0.80;;
21743;SDS011;11034;48.556;9.342;2023-12-20T08:08:45;1.83;;;0.85;;
21743;SDS011;11034;48.556;9.342;2023-12-20T08:11:26;1.02;;;0.80;;
21743;SDS011;11034;48.556;9.342;2023-12-20T08:13:55;1.48;;;1.00;;
21743;SDS011;11034;48.556;9.342;2023-12-20T08:16:24;1.42;;;0.95;;
21743;SDS011;11034;48.556;9.342;2023-12-20T08:18:53;2.83;;;1.10;;
21743;SDS011;11034;48.556;9.342;2023-12-20T08:21:22;1.55;;;1.20;;
21743;SDS011;11034;48.556;9.342;2023-12-20T08:23:51;0.90;;;0.90;;
21743;SDS011;11034;48.556;9.342;2023-12-20T08:26:19;1.92;;;1.02;;
21743;SDS011;11034;48.556;9.342;2023-12-20T08:28:49;1.30;;;1.00;;
21743;SDS011;11034;48.556;9.342;2023-12-20T08:31:18;1.83;;;1.30;;
21743;SDS011;11034;48.556;9.342;2023-12-20T08:33:49;3.00;;;1.58;;
21743;SDS011;11034;48.556;9.342;2023-12-20T08:36:19;1.80;;;1.35;;
21743;SDS011;11034;48.556;9.342;2023-12-20T08:38:49;3.78;;;1.98;;
21743;SDS011;11034;48.556;9.342;2023-12-20T08:41:18;5.43;;;2.00;;
21743;SDS011;11034;48.556;9.342;2023-12-20T08:43:47;3.38;;;1.80;;
21743;SDS011;11034;48.556;9.342;2023-12-20T08:46:15;2.72;;;1.90;;
21743;SDS011;11034;48.556;9.342;2023-12-20T08:48:44;2.70;;;1.60;;
21743;SDS011;11034;48.556;9.342;2023-12-20T08:51:14;3.33;;;1.88;;
21743;SDS011;11034;48.556;9.342;2023-12-20T08:53:43;3.45;;;2.30;;
21743;SDS011;11034;48.556;9.342;2023-12-20T08:56:14;4.70;;;1.95;;
21743;SDS011;11034;48.556;9.342;2023-12-20T08:58:43;2.25;;;1.55;;
21743;SDS011;11034;48.556;9.342;2023-12-20T09:01:11;2.40;;;1.77;;
21743;SDS011;11034;48.556;9.342;2023-12-20T09:03:40;1.70;;;1.33;;
21743;SDS011;11034;48.556;9.342;2023-12-20T09:06:09;2.15;;;1.20;;
21743;SDS011;11034;48.556;9.342;2023-12-20T09:08:39;2.70;;;2.08;;
21743;SDS011;11034;48.556;9.342;2023-12-20T09:11:09;3.22;;;2.90;;
21743;SDS011;11034;48.556;9.342;2023-12-20T09:13:38;5.93;;;4.13;;
21743;SDS011;11034;48.556;9.342;2023-12-20T09:16:06;5.95;;;4.15;;
21743;SDS011;11034;48.556;9.342;2023-12-20T09:18:35;5.53;;;3.38;;
21743;SDS011;11034;48.556;9.342;2023-12-20T09:21:04;4.05;;;2.90;;
21743;SDS011;11034;48.556;9.342;2023-12-20T09:23:32;2.97;;;2.55;;
21743;SDS011;11034;48.556;9.342;2023-12-20T09:26:02;4.35;;;2.20;;
21743;SDS011;11034;48.556;9.342;2023-12-20T09:28:38;2.28;;;1.80;;
21743;SDS011;11034;48.556;9.342;2023-12-20T09:31:07;2.42;;;1.88;;
21743;SDS011;11034;48.556;9.342;2023-12-20T09:33:35;4.63;;;2.33;;
21743;SDS011;11034;48.556;9.342;2023-12-20T09:36:04;2.70;;;2.00;;
21743;SDS011;11034;48.556;9.342;2023-12-20T09:38:34;3.92;;;2.15;;
21743;SDS011;11034;48.556;9.342;2023-12-20T09:41:06;6.95;;;2.40;;
21743;SDS011;11034;48.556;9.342;2023-12-20T09:43:35;4.28;;;2.08;;
21743;SDS011;11034;48.556;9.342;2023-12-20T09:46:06;2.80;;;1.75;;
21743;SDS011;11034;48.556;9.342;2023-12-20T09:48:35;4.63;;;1.83;;
21743;SDS011;11034;48.556;9.342;2023-12-20T09:51:04;6.63;;;1.77;;
21743;SDS011;11034;48.556;9.342;2023-12-20T09:53:33;4.05;;;1.88;;
21743;SDS011;11034;48.556;9.342;2023-12-20T09:56:04;7.72;;;2.33;;
21743;SDS011;11034;48.556;9.342;2023-12-20T09:58:37;4.15;;;2.05;;
21743;SDS011;11034;48.556;9.342;2023-12-20T10:01:06;5.40;;;2.35;;
21743;SDS011;11034;48.556;9.342;2023-12-20T10:03:36;4.53;;;2.30;;
21743;SDS011;11034;48.556;9.342;2023-12-20T10:06:08;6.47;;;2.30;;
21743;SDS011;11034;48.556;9.342;2023-12-20T10:08:37;4.88;;;2.40;;
21743;SDS011;11034;48.556;9.342;2023-12-20T10:11:05;3.95;;;2.30;;
21743;SDS011;11034;48.556;9.342;2023-12-20T10:13:34;5.55;;;1.95;;
21743;SDS011;11034;48.556;9.342;2023-12-20T10:16:07;5.25;;;2.30;;
21743;SDS011;11034;48.556;9.342;2023-12-20T10:18:35;5.35;;;2.22;;
21743;SDS011;11034;48.556;9.342;2023-12-20T10:21:05;5.88;;;2.30;;
21743;SDS011;11034;48.556;9.342;2023-12-20T10:23:36;6.18;;;1.98;;
21743;SDS011;11034;48.556;9.342;2023-12-20T10:26:06;4.78;;;1.80;;
21743;SDS011;11034;48.556;9.342;2023-12-20T10:28:36;8.75;;;2.38;;
21743;SDS011;11034;48.556;9.342;2023-12-20T10:31:06;4.32;;;1.92;;
21743;SDS011;11034;48.556;9.342;2023-12-20T10:33:35;6.63;;;2.20;;
21743;SDS011;11034;48.556;9.342;2023-12-20T10:36:04;6.03;;;1.90;;
21743;SDS011;11034;48.556;9.342;2023-12-20T10:38:33;6.70;;;1.67;;
21743;SDS011;11034;48.556;9.342;2023-12-20T10:41:02;7.55;;;1.80;;
21743;SDS011;11034;48.556;9.342;2023-12-20T10:43:32;4.93;;;1.60;;
21743;SDS011;11034;48.556;9.342;2023-12-20T10:46:01;3.13;;;1.42;;
21743;SDS011;11034;48.556;9.342;2023-12-20T10:48:32;4.38;;;2.40;;
21743;SDS011;11034;48.556;9.342;2023-12-20T10:51:02;4.70;;;2.28;;
21743;SDS011;11034;48.556;9.342;2023-12-20T10:53:32;4.35;;;1.92;;
21743;SDS011;11034;48.556;9.342;2023-12-20T10:56:03;7.13;;;1.90;;
21743;SDS011;11034;48.556;9.342;2023-12-20T10:58:32;6.20;;;2.53;;
21743;SDS011;11034;48.556;9.342;2023-12-20T11:01:01;7.82;;;2.08;;
21743;SDS011;11034;48.556;9.342;2023-12-20T11:03:34;6.35;;;1.83;;
21743;SDS011;11034;48.556;9.342;2023-12-20T11:06:06;6.20;;;2.22;;
21743;SDS011;11034;48.556;9.342;2023-12-20T11:08:38;3.17;;;1.85;;
21743;SDS011;11034;48.556;9.342;2023-12-20T11:11:09;8.38;;;3.10;;
21743;SDS011;11034;48.556;9.342;2023-12-20T11:13:40;4.45;;;1.77;;
21743;SDS011;11034;48.556;9.342;2023-12-20T11:16:11;4.78;;;2.08;;
21743;SDS011;11034;48.556;9.342;2023-12-20T11:18:42;7.13;;;1.80;;
21743;SDS011;11034;48.556;9.342;2023-12-20T11:21:10;7.07;;;1.70;;
21743;SDS011;11034;48.556;9.342;2023-12-20T11:23:40;5.38;;;2.20;;
21743;SDS011;11034;48.556;9.342;2023-12-20T11:26:10;6.18;;;2.03;;
21743;SDS011;11034;48.556;9.342;2023-12-20T11:28:38;2.00;;;1.38;;
21743;SDS011;11034;48.556;9.342;2023-12-20T11:31:07;4.63;;;2.00;;
21743;SDS011;11034;48.556;9.342;2023-12-20T11:33:37;4.97;;;1.65;;
21743;SDS011;11034;48.556;9.342;2023-12-20T11:36:14;5.30;;;1.60;;
21743;SDS011;11034;48.556;9.342;2023-12-20T11:38:50;3.72;;;1.40;;
21743;SDS011;11034;48.556;9.342;2023-12-20T11:41:22;3.08;;;1.60;;
21743;SDS011;11034;48.556;9.342;2023-12-20T11:43:53;8.25;;;2.65;;
21743;SDS011;11034;48.556;9.342;2023-12-20T11:46:22;6.15;;;2.00;;
21743;SDS011;11034;48.556;9.342;2023-12-20T11:48:51;7.65;;;1.77;;
21743;SDS011;11034;48.556;9.342;2023-12-20T11:51:21;7.30;;;1.48;;
21743;SDS011;11034;48.556;9.342;2023-12-20T11:53:52;3.85;;;1.40;;
21743;SDS011;11034;48.556;9.342;2023-12-20T11:56:20;5.95;;;1.50;;
21743;SDS011;11034;48.556;9.342;2023-12-20T11:58:49;6.47;;;1.63;;
21743;SDS011;11034;48.556;9.342;2023-12-20T12:01:19;7.10;;;1.77;;
21743;SDS011;11034;48.556;9.342;2023-12-20T12:03:48;5.88;;;1.40;;
21743;SDS011;11034;48.556;9.342;2023-12-20T12:06:16;3.85;;;1.40;;
21743;SDS011;11034;48.556;9.342;2023-12-20T12:08:46;3.58;;;1.40;;
21743;SDS011;11034;48.556;9.342;2023-12-20T12:11:15;5.65;;;1.60;;
21743;SDS011;11034;48.556;9.342;2023-12-20T12:13:43;3.75;;;1.42;;
21743;SDS011;11034;48.556;9.342;2023-12-20T12:16:12;4.25;;;1.42;;
21743;SDS011;11034;48.556;9.342;2023-12-20T12:18:40;6.35;;;1.88;;
21743;SDS011;11034;48.556;9.342;2023-12-20T12:21:10;5.00;;;1.55;;
21743;SDS011;11034;48.556;9.342;2023-12-20T12:23:44;4.82;;;1.30;;
21743;SDS011;11034;48.556;9.342;2023-12-20T12:26:15;3.95;;;1.33;;
21743;SDS011;11034;48.556;9.342;2023-12-20T12:28:43;6.15;;;1.40;;
21743;SDS011;11034;48.556;9.342;2023-12-20T12:31:13;6.18;;;1.80;;
21743;SDS011;11034;48.556;9.342;2023-12-20T12:33:46;7.65;;;1.88;;
21743;SDS011;11034;48.556;9.342;2023-12-20T12:36:15;4.60;;;1.75;;
21743;SDS011;11034;48.556;9.342;2023-12-20T12:38:44;3.15;;;1.58;;
21743;SDS011;11034;48.556;9.342;2023-12-20T12:41:12;3.83;;;1.67;;
21743;SDS011;11034;48.556;9.342;2023-12-20T12:43:43;6.80;;;1.70;;
21743;SDS011;11034;48.556;9.342;2023-12-20T12:46:11;4.68;;;1.63;;
21743;SDS011;11034;48.556;9.342;2023-12-20T12:48:42;7.35;;;1.83;;
21743;SDS011;11034;48.556;9.342;2023-12-20T12:51:12;7.22;;;1.85;;
21743;SDS011;11034;48.556;9.342;2023-12-20T12:53:41;4.97;;;1.40;;
21743;SDS011;11034;48.556;9.342;2023-12-20T12:56:09;5.20;;;1.67;;
21743;SDS011;11034;48.556;9.342;2023-12-20T12:58:38;8.48;;;2.22;;
21743;SDS011;11034;48.556;9.342;2023-12-20T13:01:08;5.75;;;1.70;;
21743;SDS011;11034;48.556;9.342;2023-12-20T13:03:37;7.63;;;1.70;;
21743;SDS011;11034;48.556;9.342;2023-12-20T13:06:05;3.85;;;1.30;;
21743;SDS011;11034;48.556;9.342;2023-12-20T13:08:35;9.30;;;1.73;;
21743;SDS011;11034;48.556;9.342;2023-12-20T13:11:03;6.63;;;1.77;;
21743;SDS011;11034;48.556;9.342;2023-12-20T13:13:32;4.80;;;1.55;;
21743;SDS011;11034;48.556;9.342;2023-12-20T13:16:00;6.82;;;2.08;;
21743;SDS011;11034;48.556;9.342;2023-12-20T13:18:30;5.93;;;1.60;;
21743;SDS011;11034;48.556;9.342;2023-12-20T13:20:59;6.32;;;2.08;;
21743;SDS011;11034;48.556;9.342;2023-12-20T13:23:27;7.35;;;1.65;;
21743;SDS011;11034;48.556;9.342;2023-12-20T13:25:55;8.02;;;2.83;;
21743;SDS011;11034;48.556;9.342;2023-12-20T13:28:24;10.05;;;1.60;;
21743;SDS011;11034;48.556;9.342;2023-12-20T13:30:53;6.40;;;1.73;;
21743;SDS011;11034;48.556;9.342;2023-12-20T13:33:21;5.90;;;1.55;;
21743;SDS011;11034;48.556;9.342;2023-12-20T13:35:51;6.50;;;1.52;;
21743;SDS011;11034;48.556;9.342;2023-12-20T13:38:20;6.05;;;1.52;;
21743;SDS011;11034;48.556;9.342;2023-12-20T13:40:49;8.93;;;1.83;;
21743;SDS011;11034;48.556;9.342;2023-12-20T13:43:20;9.40;;;1.80;;
21743;SDS011;11034;48.556;9.342;2023-12-20T13:45:51;9.02;;;1.50;;
21743;SDS011;11034;48.556;9.342;2023-12-20T13:48:20;6.30;;;1.33;;
21743;SDS011;11034;48.556;9.342;2023-12-20T13:50:48;6.35;;;1.55;;
21743;SDS011;11034;48.556;9.342;2023-12-20T13:53:18;7.18;;;1.65;;
21743;SDS011;11034;48.556;9.342;2023-12-20T13:55:47;7.03;;;2.08;;
21743;SDS011;11034;48.556;9.342;2023-12-20T13:58:16;4.90;;;1.33;;
21743;SDS011;11034;48.556;9.342;2023-12-20T14:00:44;16.17;;;5.32;;
21743;SDS011;11034;48.556;9.342;2023-12-20T14:03:13;16.55;;;5.50;;
21743;SDS011;11034;48.556;9.342;2023-12-20T14:05:41;9.60;;;2.30;;
21743;SDS011;11034;48.556;9.342;2023-12-20T14:08:10;9.75;;;2.40;;
21743;SDS011;11034;48.556;9.342;2023-12-20T14:10:40;5.05;;;2.03;;
21743;SDS011;11034;48.556;9.342;2023-12-20T14:13:09;5.65;;;1.95;;
21743;SDS011;11034;48.556;9.342;2023-12-20T14:15:38;8.75;;;2.20;;
21743;SDS011;11034;48.556;9.342;2023-12-20T14:18:06;7.63;;;2.85;;
21743;SDS011;11034;48.556;9.342;2023-12-20T14:20:35;8.07;;;2.70;;
21743;SDS011;11034;48.556;9.342;2023-12-20T14:23:05;7.20;;;2.70;;
21743;SDS011;11034;48.556;9.342;2023-12-20T14:25:36;9.98;;;2.40;;
21743;SDS011;11034;48.556;9.342;2023-12-20T14:28:18;4.88;;;1.70;;
21743;SDS011;11034;48.556;9.342;2023-12-20T14:30:47;9.85;;;1.95;;
21743;SDS011;11034;48.556;9.342;2023-12-20T14:33:16;5.43;;;1.88;;
21743;SDS011;11034;48.556;9.342;2023-12-20T14:35:47;4.57;;;1.83;;
21743;SDS011;11034;48.556;9.342;2023-12-20T14:38:18;8.20;;;2.33;;
21743;SDS011;11034;48.556;9.342;2023-12-20T14:40:46;7.60;;;1.67;;
21743;SDS011;11034;48.556;9.342;2023-12-20T14:43:15;6.85;;;1.92;;
21743;SDS011;11034;48.556;9.342;2023-12-20T14:45:45;6.00;;;1.50;;
21743;SDS011;11034;48.556;9.342;2023-12-20T14:48:14;5.45;;;1.50;;
21743;SDS011;11034;48.556;9.342;2023-12-20T14:50:43;11.38;;;1.75;;
21743;SDS011;11034;48.556;9.342;2023-12-20T14:53:14;5.30;;;1.80;;
21743;SDS011;11034;48.556;9.342;2023-12-20T14:55:48;6.47;;;1.50;;
21743;SDS011;11034;48.556;9.342;2023-12-20T14:58:17;5.55;;;1.63;;
21743;SDS011;11034;48.556;9.342;2023-12-20T15:00:47;3.50;;;1.40;;